sensor_id;sensor_type;location;lat;lon;timestamp;P1;durP1;ratioP1;P2;durP2;ratioP2
8327;SDS011;4201;48.754;8.864;2022-10-13T00:01:21;55.87;;;29.30;;
8327;SDS011;4201;48.754;8.864;2022-10-13T00:03:48;39.73;;;27.83;;
8327;SDS011;4201;48.754;8.864;2022-10-13T00:06:15;50.93;;;28.20;;
8327;SDS011;4201;48.754;8.864;2022-10-13T00:08:42;50.00;;;27.10;;
8327;SDS011;4201;48.754;8.864;2022-10-13T00:11:09;42.60;;;26.27;;
8327;SDS011;4201;48.754;8.864;2022-10-13T00:13:38;47.80;;;27.07;;
8327;SDS011;4201;48.754;8.864;2022-10-13T00:16:05;60.07;;;29.47;;
8327;SDS011;4201;48.754;8.864;2022-10-13T00:18:31;48.57;;;27.13;;
8327;SDS011;4201;48.754;8.864;2022-10-13T00:20:57;43.50;;;27.40;;
8327;SDS011;4201;48.754;8.864;2022-10-13T00:23:24;47.17;;;26.90;;
8327;SDS011;4201;48.754;8.864;2022-10-13T00:25:50;48.77;;;28.07;;
8327;SDS011;4201;48.754;8.864;2022-10-13T00:28:17;49.87;;;27.03;;
8327;SDS011;4201;48.754;8.864;2022-10-13T00:30:45;48.10;;;30.10;;
8327;SDS011;4201;48.754;8.864;2022-10-13T00:33:12;49.27;;;27.77;;
8327;SDS011;4201;48.754;8.864;2022-10-13T00:35:39;47.20;;;28.33;;
8327;SDS011;4201;48.754;8.864;2022-10-13T00:38:05;50.17;;;26.57;;
8327;SDS011;4201;48.754;8.864;2022-10-13T00:40:31;47.60;;;25.30;;
8327;SDS011;4201;48.754;8.864;2022-10-13T00:42:58;43.90;;;27.60;;
8327;SDS011;4201;48.754;8.864;2022-10-13T00:45:25;49.43;;;28.90;;
8327;SDS011;4201;48.754;8.864;2022-10-13T00:47:54;44.30;;;26.50;;
8327;SDS011;4201;48.754;8.864;2022-10-13T00:50:21;47.53;;;27.43;;
8327;SDS011;4201;48.754;8.864;2022-10-13T00:52:49;47.30;;;27.37;;
8327;SDS011;4201;48.754;8.864;2022-10-13T00:55:16;50.80;;;28.33;;
8327;SDS011;4201;48.754;8.864;2022-10-13T00:57:45;57.93;;;29.60;;
8327;SDS011;4201;48.754;8.864;2022-10-13T01:00:13;58.13;;;29.17;;
8327;SDS011;4201;48.754;8.864;2022-10-13T01:02:39;46.17;;;27.97;;
8327;SDS011;4201;48.754;8.864;2022-10-13T01:05:07;46.07;;;26.93;;
8327;SDS011;4201;48.754;8.864;2022-10-13T01:07:33;49.97;;;28.20;;
8327;SDS011;4201;48.754;8.864;2022-10-13T01:10:00;49.77;;;29.23;;
8327;SDS011;4201;48.754;8.864;2022-10-13T01:12:32;53.30;;;28.27;;
8327;SDS011;4201;48.754;8.864;2022-10-13T01:15:02;46.57;;;27.30;;
8327;SDS011;4201;48.754;8.864;2022-10-13T01:17:32;40.80;;;26.07;;
8327;SDS011;4201;48.754;8.864;2022-10-13T01:22:54;46.00;;;25.80;;
8327;SDS011;4201;48.754;8.864;2022-10-13T01:25:28;50.43;;;26.87;;
8327;SDS011;4201;48.754;8.864;2022-10-13T01:28:03;43.03;;;27.57;;
8327;SDS011;4201;48.754;8.864;2022-10-13T01:30:37;49.60;;;26.77;;
8327;SDS011;4201;48.754;8.864;2022-10-13T01:33:13;49.67;;;27.47;;
8327;SDS011;4201;48.754;8.864;2022-10-13T01:35:43;45.73;;;27.13;;
8327;SDS011;4201;48.754;8.864;2022-10-13T01:38:12;53.83;;;28.20;;
8327;SDS011;4201;48.754;8.864;2022-10-13T01:40:41;42.30;;;25.90;;
8327;SDS011;4201;48.754;8.864;2022-10-13T01:43:11;47.43;;;27.80;;
8327;SDS011;4201;48.754;8.864;2022-10-13T01:45:41;53.13;;;29.60;;
8327;SDS011;4201;48.754;8.864;2022-10-13T01:48:09;47.67;;;28.90;;
8327;SDS011;4201;48.754;8.864;2022-10-13T01:50:36;66.50;;;31.57;;
8327;SDS011;4201;48.754;8.864;2022-10-13T01:53:03;53.63;;;29.17;;
8327;SDS011;4201;48.754;8.864;2022-10-13T01:55:30;46.80;;;27.40;;
8327;SDS011;4201;48.754;8.864;2022-10-13T01:57:56;56.10;;;29.43;;
8327;SDS011;4201;48.754;8.864;2022-10-13T02:00:23;46.23;;;26.63;;
8327;SDS011;4201;48.754;8.864;2022-10-13T02:02:54;57.63;;;29.10;;
8327;SDS011;4201;48.754;8.864;2022-10-13T02:05:24;43.03;;;27.27;;
8327;SDS011;4201;48.754;8.864;2022-10-13T02:07:54;52.73;;;27.47;;
8327;SDS011;4201;48.754;8.864;2022-10-13T02:10:25;42.47;;;27.30;;
8327;SDS011;4201;48.754;8.864;2022-10-13T02:12:54;52.97;;;29.23;;
8327;SDS011;4201;48.754;8.864;2022-10-13T02:15:22;43.97;;;26.10;;
8327;SDS011;4201;48.754;8.864;2022-10-13T02:17:50;44.07;;;26.60;;
8327;SDS011;4201;48.754;8.864;2022-10-13T02:20:18;43.07;;;27.83;;
8327;SDS011;4201;48.754;8.864;2022-10-13T02:22:46;49.13;;;29.13;;
8327;SDS011;4201;48.754;8.864;2022-10-13T02:25:14;52.73;;;28.80;;
8327;SDS011;4201;48.754;8.864;2022-10-13T02:27:41;46.20;;;27.33;;
8327;SDS011;4201;48.754;8.864;2022-10-13T02:30:07;48.07;;;27.93;;
8327;SDS011;4201;48.754;8.864;2022-10-13T02:32:34;43.40;;;27.67;;
8327;SDS011;4201;48.754;8.864;2022-10-13T02:35:01;45.10;;;26.73;;
8327;SDS011;4201;48.754;8.864;2022-10-13T02:37:28;44.13;;;27.30;;
8327;SDS011;4201;48.754;8.864;2022-10-13T02:39:55;50.17;;;28.93;;
8327;SDS011;4201;48.754;8.864;2022-10-13T02:42:21;50.33;;;27.60;;
8327;SDS011;4201;48.754;8.864;2022-10-13T02:44:47;48.97;;;27.80;;
8327;SDS011;4201;48.754;8.864;2022-10-13T02:47:13;50.13;;;27.77;;
8327;SDS011;4201;48.754;8.864;2022-10-13T02:49:40;61.27;;;28.77;;
8327;SDS011;4201;48.754;8.864;2022-10-13T02:52:06;53.20;;;28.77;;
8327;SDS011;4201;48.754;8.864;2022-10-13T02:54:34;51.40;;;28.53;;
8327;SDS011;4201;48.754;8.864;2022-10-13T02:57:00;46.50;;;28.20;;
8327;SDS011;4201;48.754;8.864;2022-10-13T02:59:26;47.07;;;27.40;;
8327;SDS011;4201;48.754;8.864;2022-10-13T03:01:52;52.30;;;29.47;;
8327;SDS011;4201;48.754;8.864;2022-10-13T03:04:19;55.03;;;31.40;;
8327;SDS011;4201;48.754;8.864;2022-10-13T03:06:46;48.20;;;29.07;;
8327;SDS011;4201;48.754;8.864;2022-10-13T03:09:12;47.53;;;29.33;;
8327;SDS011;4201;48.754;8.864;2022-10-13T03:11:40;47.70;;;28.10;;
8327;SDS011;4201;48.754;8.864;2022-10-13T03:14:06;50.70;;;29.10;;
8327;SDS011;4201;48.754;8.864;2022-10-13T03:16:33;47.73;;;28.93;;
8327;SDS011;4201;48.754;8.864;2022-10-13T03:18:59;49.70;;;27.57;;
8327;SDS011;4201;48.754;8.864;2022-10-13T03:21:25;51.00;;;30.83;;
8327;SDS011;4201;48.754;8.864;2022-10-13T03:23:51;56.70;;;31.03;;
8327;SDS011;4201;48.754;8.864;2022-10-13T03:26:18;48.13;;;26.60;;
8327;SDS011;4201;48.754;8.864;2022-10-13T03:28:48;43.93;;;27.63;;
8327;SDS011;4201;48.754;8.864;2022-10-13T03:31:15;44.13;;;28.17;;
8327;SDS011;4201;48.754;8.864;2022-10-13T03:33:42;51.03;;;25.63;;
8327;SDS011;4201;48.754;8.864;2022-10-13T03:36:10;48.43;;;29.50;;
8327;SDS011;4201;48.754;8.864;2022-10-13T03:38:37;53.53;;;30.80;;
8327;SDS011;4201;48.754;8.864;2022-10-13T03:41:04;57.67;;;27.50;;
8327;SDS011;4201;48.754;8.864;2022-10-13T03:43:38;52.00;;;30.57;;
8327;SDS011;4201;48.754;8.864;2022-10-13T03:46:06;59.20;;;31.87;;
8327;SDS011;4201;48.754;8.864;2022-10-13T03:48:33;53.93;;;28.07;;
8327;SDS011;4201;48.754;8.864;2022-10-13T03:51:02;47.50;;;29.13;;
8327;SDS011;4201;48.754;8.864;2022-10-13T03:53:31;57.93;;;30.17;;
8327;SDS011;4201;48.754;8.864;2022-10-13T03:55:57;47.83;;;28.27;;
8327;SDS011;4201;48.754;8.864;2022-10-13T03:58:24;55.43;;;29.80;;
8327;SDS011;4201;48.754;8.864;2022-10-13T04:00:52;56.47;;;30.33;;
8327;SDS011;4201;48.754;8.864;2022-10-13T04:03:20;47.83;;;29.57;;
8327;SDS011;4201;48.754;8.864;2022-10-13T04:05:46;51.57;;;29.60;;
8327;SDS011;4201;48.754;8.864;2022-10-13T04:08:13;46.73;;;30.07;;
8327;SDS011;4201;48.754;8.864;2022-10-13T04:10:39;48.63;;;27.37;;
8327;SDS011;4201;48.754;8.864;2022-10-13T04:13:05;46.03;;;27.70;;
8327;SDS011;4201;48.754;8.864;2022-10-13T04:15:34;49.43;;;27.53;;
8327;SDS011;4201;48.754;8.864;2022-10-13T04:18:00;45.87;;;28.17;;
8327;SDS011;4201;48.754;8.864;2022-10-13T04:20:28;47.27;;;28.80;;
8327;SDS011;4201;48.754;8.864;2022-10-13T04:22:54;53.40;;;29.00;;
8327;SDS011;4201;48.754;8.864;2022-10-13T04:25:20;54.63;;;28.63;;
8327;SDS011;4201;48.754;8.864;2022-10-13T04:27:50;53.20;;;27.73;;
8327;SDS011;4201;48.754;8.864;2022-10-13T04:30:16;50.93;;;28.03;;
8327;SDS011;4201;48.754;8.864;2022-10-13T04:32:42;47.50;;;27.87;;
8327;SDS011;4201;48.754;8.864;2022-10-13T04:35:09;46.80;;;27.33;;
8327;SDS011;4201;48.754;8.864;2022-10-13T04:37:40;46.90;;;28.97;;
8327;SDS011;4201;48.754;8.864;2022-10-13T04:40:06;50.60;;;28.37;;
8327;SDS011;4201;48.754;8.864;2022-10-13T04:42:33;57.60;;;28.77;;
8327;SDS011;4201;48.754;8.864;2022-10-13T04:44:59;47.73;;;29.67;;
8327;SDS011;4201;48.754;8.864;2022-10-13T04:47:25;47.53;;;27.27;;
8327;SDS011;4201;48.754;8.864;2022-10-13T04:49:52;57.90;;;31.53;;
8327;SDS011;4201;48.754;8.864;2022-10-13T04:52:20;50.33;;;29.47;;
8327;SDS011;4201;48.754;8.864;2022-10-13T04:54:47;52.40;;;29.47;;
8327;SDS011;4201;48.754;8.864;2022-10-13T04:57:14;51.43;;;28.90;;
8327;SDS011;4201;48.754;8.864;2022-10-13T04:59:40;53.97;;;29.03;;
8327;SDS011;4201;48.754;8.864;2022-10-13T05:02:06;52.30;;;30.27;;
8327;SDS011;4201;48.754;8.864;2022-10-13T05:04:33;50.83;;;29.13;;
8327;SDS011;4201;48.754;8.864;2022-10-13T05:06:59;46.30;;;27.13;;
8327;SDS011;4201;48.754;8.864;2022-10-13T05:09:25;44.50;;;27.47;;
8327;SDS011;4201;48.754;8.864;2022-10-13T05:11:53;47.50;;;30.30;;
8327;SDS011;4201;48.754;8.864;2022-10-13T05:14:19;58.93;;;28.30;;
8327;SDS011;4201;48.754;8.864;2022-10-13T05:16:46;44.50;;;27.20;;
8327;SDS011;4201;48.754;8.864;2022-10-13T05:19:13;49.40;;;29.83;;
8327;SDS011;4201;48.754;8.864;2022-10-13T05:21:39;46.57;;;27.50;;
8327;SDS011;4201;48.754;8.864;2022-10-13T05:24:06;48.97;;;27.87;;
8327;SDS011;4201;48.754;8.864;2022-10-13T05:26:37;45.30;;;27.00;;
8327;SDS011;4201;48.754;8.864;2022-10-13T05:29:05;42.47;;;25.87;;
8327;SDS011;4201;48.754;8.864;2022-10-13T05:31:31;44.83;;;27.27;;
8327;SDS011;4201;48.754;8.864;2022-10-13T05:33:58;41.07;;;26.37;;
8327;SDS011;4201;48.754;8.864;2022-10-13T05:36:26;36.83;;;25.60;;
8327;SDS011;4201;48.754;8.864;2022-10-13T05:38:54;42.93;;;27.00;;
8327;SDS011;4201;48.754;8.864;2022-10-13T05:41:21;46.73;;;26.93;;
8327;SDS011;4201;48.754;8.864;2022-10-13T05:43:52;46.83;;;26.70;;
8327;SDS011;4201;48.754;8.864;2022-10-13T05:46:20;41.67;;;26.33;;
8327;SDS011;4201;48.754;8.864;2022-10-13T05:48:47;41.63;;;26.80;;
8327;SDS011;4201;48.754;8.864;2022-10-13T05:51:14;38.27;;;25.33;;
8327;SDS011;4201;48.754;8.864;2022-10-13T05:53:42;42.97;;;24.17;;
8327;SDS011;4201;48.754;8.864;2022-10-13T05:56:11;40.03;;;24.60;;
8327;SDS011;4201;48.754;8.864;2022-10-13T05:58:38;39.70;;;25.53;;
8327;SDS011;4201;48.754;8.864;2022-10-13T06:01:05;39.60;;;25.87;;
8327;SDS011;4201;48.754;8.864;2022-10-13T06:03:34;42.27;;;25.53;;
8327;SDS011;4201;48.754;8.864;2022-10-13T06:06:01;43.20;;;26.30;;
8327;SDS011;4201;48.754;8.864;2022-10-13T06:08:28;45.80;;;25.73;;
8327;SDS011;4201;48.754;8.864;2022-10-13T06:11:02;42.70;;;25.77;;
8327;SDS011;4201;48.754;8.864;2022-10-13T06:13:29;45.93;;;26.00;;
8327;SDS011;4201;48.754;8.864;2022-10-13T06:15:56;45.93;;;25.90;;
8327;SDS011;4201;48.754;8.864;2022-10-13T06:18:22;45.13;;;27.10;;
8327;SDS011;4201;48.754;8.864;2022-10-13T06:20:50;40.30;;;24.93;;
8327;SDS011;4201;48.754;8.864;2022-10-13T06:23:26;37.80;;;25.17;;
8327;SDS011;4201;48.754;8.864;2022-10-13T06:25:56;36.87;;;25.07;;
8327;SDS011;4201;48.754;8.864;2022-10-13T06:28:22;39.93;;;24.20;;
8327;SDS011;4201;48.754;8.864;2022-10-13T06:30:48;36.43;;;23.73;;
8327;SDS011;4201;48.754;8.864;2022-10-13T06:33:20;35.93;;;22.63;;
8327;SDS011;4201;48.754;8.864;2022-10-13T06:35:53;45.63;;;24.60;;
8327;SDS011;4201;48.754;8.864;2022-10-13T06:38:19;33.70;;;21.97;;
8327;SDS011;4201;48.754;8.864;2022-10-13T06:40:48;34.07;;;22.77;;
8327;SDS011;4201;48.754;8.864;2022-10-13T06:43:14;38.60;;;23.13;;
8327;SDS011;4201;48.754;8.864;2022-10-13T06:45:48;41.40;;;22.43;;
8327;SDS011;4201;48.754;8.864;2022-10-13T06:48:15;36.17;;;22.70;;
8327;SDS011;4201;48.754;8.864;2022-10-13T06:50:41;39.73;;;24.47;;
8327;SDS011;4201;48.754;8.864;2022-10-13T06:53:09;36.70;;;22.30;;
8327;SDS011;4201;48.754;8.864;2022-10-13T06:55:35;34.30;;;22.07;;
8327;SDS011;4201;48.754;8.864;2022-10-13T06:58:01;37.60;;;23.97;;
8327;SDS011;4201;48.754;8.864;2022-10-13T07:00:27;32.67;;;21.73;;
8327;SDS011;4201;48.754;8.864;2022-10-13T07:02:54;36.80;;;23.83;;
8327;SDS011;4201;48.754;8.864;2022-10-13T07:05:20;37.33;;;23.67;;
8327;SDS011;4201;48.754;8.864;2022-10-13T07:07:46;32.17;;;21.30;;
8327;SDS011;4201;48.754;8.864;2022-10-13T07:10:14;34.00;;;22.77;;
8327;SDS011;4201;48.754;8.864;2022-10-13T07:12:40;36.13;;;23.00;;
8327;SDS011;4201;48.754;8.864;2022-10-13T07:15:07;36.23;;;21.50;;
8327;SDS011;4201;48.754;8.864;2022-10-13T07:17:33;37.37;;;23.80;;
8327;SDS011;4201;48.754;8.864;2022-10-13T07:19:59;32.30;;;22.03;;
8327;SDS011;4201;48.754;8.864;2022-10-13T07:22:26;33.97;;;20.97;;
8327;SDS011;4201;48.754;8.864;2022-10-13T07:24:53;27.73;;;20.23;;
8327;SDS011;4201;48.754;8.864;2022-10-13T07:27:20;36.83;;;23.13;;
8327;SDS011;4201;48.754;8.864;2022-10-13T07:29:46;37.03;;;22.80;;
8327;SDS011;4201;48.754;8.864;2022-10-13T07:32:13;34.93;;;24.10;;
8327;SDS011;4201;48.754;8.864;2022-10-13T07:34:39;36.47;;;25.20;;
8327;SDS011;4201;48.754;8.864;2022-10-13T07:37:05;36.07;;;24.40;;
8327;SDS011;4201;48.754;8.864;2022-10-13T07:39:32;31.80;;;20.40;;
8327;SDS011;4201;48.754;8.864;2022-10-13T07:41:58;30.30;;;21.53;;
8327;SDS011;4201;48.754;8.864;2022-10-13T07:44:26;30.07;;;20.43;;
8327;SDS011;4201;48.754;8.864;2022-10-13T07:46:52;37.67;;;20.57;;
8327;SDS011;4201;48.754;8.864;2022-10-13T07:49:18;29.67;;;20.20;;
8327;SDS011;4201;48.754;8.864;2022-10-13T07:51:45;31.50;;;20.80;;
8327;SDS011;4201;48.754;8.864;2022-10-13T07:54:11;31.10;;;21.33;;
8327;SDS011;4201;48.754;8.864;2022-10-13T07:56:37;31.37;;;21.17;;
8327;SDS011;4201;48.754;8.864;2022-10-13T07:59:03;31.13;;;19.80;;
8327;SDS011;4201;48.754;8.864;2022-10-13T08:01:31;35.30;;;24.23;;
8327;SDS011;4201;48.754;8.864;2022-10-13T08:03:57;36.10;;;26.60;;
8327;SDS011;4201;48.754;8.864;2022-10-13T08:06:23;30.33;;;20.93;;
8327;SDS011;4201;48.754;8.864;2022-10-13T08:08:50;35.30;;;21.60;;
8327;SDS011;4201;48.754;8.864;2022-10-13T08:11:16;27.63;;;20.63;;
8327;SDS011;4201;48.754;8.864;2022-10-13T08:13:45;31.43;;;20.43;;
8327;SDS011;4201;48.754;8.864;2022-10-13T08:16:11;29.23;;;20.40;;
8327;SDS011;4201;48.754;8.864;2022-10-13T08:18:39;26.43;;;18.03;;
8327;SDS011;4201;48.754;8.864;2022-10-13T08:21:05;26.83;;;19.20;;
8327;SDS011;4201;48.754;8.864;2022-10-13T08:23:34;27.10;;;18.67;;
8327;SDS011;4201;48.754;8.864;2022-10-13T08:26:00;28.87;;;16.43;;
8327;SDS011;4201;48.754;8.864;2022-10-13T08:28:27;28.07;;;16.80;;
8327;SDS011;4201;48.754;8.864;2022-10-13T08:30:53;29.00;;;17.73;;
8327;SDS011;4201;48.754;8.864;2022-10-13T08:33:21;30.40;;;17.70;;
8327;SDS011;4201;48.754;8.864;2022-10-13T08:35:49;31.57;;;19.67;;
8327;SDS011;4201;48.754;8.864;2022-10-13T08:38:15;28.03;;;17.60;;
8327;SDS011;4201;48.754;8.864;2022-10-13T08:40:44;25.50;;;18.23;;
8327;SDS011;4201;48.754;8.864;2022-10-13T08:43:11;25.67;;;18.80;;
8327;SDS011;4201;48.754;8.864;2022-10-13T08:45:40;29.77;;;17.50;;
8327;SDS011;4201;48.754;8.864;2022-10-13T08:48:08;26.17;;;17.40;;
8327;SDS011;4201;48.754;8.864;2022-10-13T08:50:38;22.43;;;17.80;;
8327;SDS011;4201;48.754;8.864;2022-10-13T08:53:10;28.90;;;20.03;;
8327;SDS011;4201;48.754;8.864;2022-10-13T08:55:38;29.07;;;17.27;;
8327;SDS011;4201;48.754;8.864;2022-10-13T08:58:08;23.20;;;17.70;;
8327;SDS011;4201;48.754;8.864;2022-10-13T09:00:36;24.10;;;16.80;;
8327;SDS011;4201;48.754;8.864;2022-10-13T09:03:14;24.57;;;16.90;;
8327;SDS011;4201;48.754;8.864;2022-10-13T09:05:44;19.90;;;15.57;;
8327;SDS011;4201;48.754;8.864;2022-10-13T09:08:15;25.60;;;17.97;;
8327;SDS011;4201;48.754;8.864;2022-10-13T09:10:47;29.10;;;17.10;;
8327;SDS011;4201;48.754;8.864;2022-10-13T09:13:14;20.97;;;15.23;;
8327;SDS011;4201;48.754;8.864;2022-10-13T09:15:43;27.30;;;15.07;;
8327;SDS011;4201;48.754;8.864;2022-10-13T09:18:11;25.30;;;16.20;;
8327;SDS011;4201;48.754;8.864;2022-10-13T09:20:37;27.47;;;15.57;;
8327;SDS011;4201;48.754;8.864;2022-10-13T09:23:04;22.40;;;14.93;;
8327;SDS011;4201;48.754;8.864;2022-10-13T09:25:37;24.97;;;14.87;;
8327;SDS011;4201;48.754;8.864;2022-10-13T09:28:08;29.73;;;15.70;;
8327;SDS011;4201;48.754;8.864;2022-10-13T09:30:35;25.70;;;15.40;;
8327;SDS011;4201;48.754;8.864;2022-10-13T09:33:13;25.27;;;16.83;;
8327;SDS011;4201;48.754;8.864;2022-10-13T09:35:41;23.73;;;15.77;;
8327;SDS011;4201;48.754;8.864;2022-10-13T09:38:09;22.50;;;13.83;;
8327;SDS011;4201;48.754;8.864;2022-10-13T09:40:37;25.70;;;15.90;;
8327;SDS011;4201;48.754;8.864;2022-10-13T09:43:05;19.33;;;14.77;;
8327;SDS011;4201;48.754;8.864;2022-10-13T09:45:42;19.70;;;14.33;;
8327;SDS011;4201;48.754;8.864;2022-10-13T09:48:18;22.03;;;13.53;;
8327;SDS011;4201;48.754;8.864;2022-10-13T09:50:46;22.40;;;14.97;;
8327;SDS011;4201;48.754;8.864;2022-10-13T09:53:16;24.93;;;14.00;;
8327;SDS011;4201;48.754;8.864;2022-10-13T09:55:46;22.07;;;13.37;;
8327;SDS011;4201;48.754;8.864;2022-10-13T09:58:14;27.17;;;14.40;;
8327;SDS011;4201;48.754;8.864;2022-10-13T10:00:42;18.60;;;12.90;;
8327;SDS011;4201;48.754;8.864;2022-10-13T10:03:09;22.77;;;15.00;;
8327;SDS011;4201;48.754;8.864;2022-10-13T10:05:40;22.87;;;14.10;;
8327;SDS011;4201;48.754;8.864;2022-10-13T10:08:10;20.43;;;12.53;;
8327;SDS011;4201;48.754;8.864;2022-10-13T10:10:38;18.67;;;13.90;;
8327;SDS011;4201;48.754;8.864;2022-10-13T10:13:07;24.00;;;13.93;;
8327;SDS011;4201;48.754;8.864;2022-10-13T10:15:36;19.43;;;13.07;;
8327;SDS011;4201;48.754;8.864;2022-10-13T10:18:06;24.77;;;12.43;;
8327;SDS011;4201;48.754;8.864;2022-10-13T10:20:36;21.57;;;12.27;;
8327;SDS011;4201;48.754;8.864;2022-10-13T10:23:08;26.20;;;14.90;;
8327;SDS011;4201;48.754;8.864;2022-10-13T10:25:36;22.83;;;15.37;;
8327;SDS011;4201;48.754;8.864;2022-10-13T10:28:18;17.90;;;11.80;;
8327;SDS011;4201;48.754;8.864;2022-10-13T10:30:47;18.93;;;12.17;;
8327;SDS011;4201;48.754;8.864;2022-10-13T10:33:16;16.47;;;12.30;;
8327;SDS011;4201;48.754;8.864;2022-10-13T10:35:46;16.77;;;12.77;;
8327;SDS011;4201;48.754;8.864;2022-10-13T10:38:18;18.67;;;13.30;;
8327;SDS011;4201;48.754;8.864;2022-10-13T10:40:49;43.70;;;22.50;;
8327;SDS011;4201;48.754;8.864;2022-10-13T10:43:35;16.90;;;12.77;;
8327;SDS011;4201;48.754;8.864;2022-10-13T10:46:03;20.37;;;11.43;;
8327;SDS011;4201;48.754;8.864;2022-10-13T10:48:31;36.13;;;27.83;;
8327;SDS011;4201;48.754;8.864;2022-10-13T10:51:00;16.57;;;11.27;;
8327;SDS011;4201;48.754;8.864;2022-10-13T10:53:29;25.30;;;13.23;;
8327;SDS011;4201;48.754;8.864;2022-10-13T10:55:58;15.63;;;10.57;;
8327;SDS011;4201;48.754;8.864;2022-10-13T10:58:29;20.87;;;14.70;;
8327;SDS011;4201;48.754;8.864;2022-10-13T11:01:01;14.50;;;11.53;;
8327;SDS011;4201;48.754;8.864;2022-10-13T11:03:34;19.07;;;11.07;;
8327;SDS011;4201;48.754;8.864;2022-10-13T11:06:03;14.87;;;10.70;;
8327;SDS011;4201;48.754;8.864;2022-10-13T11:08:37;12.27;;;7.80;;
8327;SDS011;4201;48.754;8.864;2022-10-13T11:13:50;13.10;;;8.67;;
8327;SDS011;4201;48.754;8.864;2022-10-13T11:16:25;11.93;;;7.10;;
8327;SDS011;4201;48.754;8.864;2022-10-13T11:18:56;13.13;;;8.50;;
8327;SDS011;4201;48.754;8.864;2022-10-13T11:26:52;15.47;;;6.70;;
8327;SDS011;4201;48.754;8.864;2022-10-13T11:29:18;8.97;;;6.40;;
8327;SDS011;4201;48.754;8.864;2022-10-13T11:32:10;13.57;;;7.10;;
8327;SDS011;4201;48.754;8.864;2022-10-13T11:34:57;9.37;;;6.40;;
8327;SDS011;4201;48.754;8.864;2022-10-13T11:37:24;7.30;;;5.90;;
8327;SDS011;4201;48.754;8.864;2022-10-13T11:40:12;12.73;;;7.50;;
8327;SDS011;4201;48.754;8.864;2022-10-13T11:45:29;9.43;;;6.20;;
8327;SDS011;4201;48.754;8.864;2022-10-13T11:50:44;12.80;;;6.50;;
8327;SDS011;4201;48.754;8.864;2022-10-13T11:53:14;14.50;;;5.40;;
8327;SDS011;4201;48.754;8.864;2022-10-13T11:55:44;10.20;;;5.53;;
8327;SDS011;4201;48.754;8.864;2022-10-13T11:58:13;9.83;;;5.70;;
8327;SDS011;4201;48.754;8.864;2022-10-13T12:00:48;19.83;;;5.90;;
8327;SDS011;4201;48.754;8.864;2022-10-13T12:03:18;12.57;;;6.90;;
8327;SDS011;4201;48.754;8.864;2022-10-13T12:05:47;9.80;;;5.73;;
8327;SDS011;4201;48.754;8.864;2022-10-13T12:08:14;9.90;;;5.60;;
8327;SDS011;4201;48.754;8.864;2022-10-13T12:10:40;9.27;;;5.53;;
8327;SDS011;4201;48.754;8.864;2022-10-13T12:13:15;10.40;;;5.93;;
8327;SDS011;4201;48.754;8.864;2022-10-13T12:15:44;9.13;;;5.20;;
8327;SDS011;4201;48.754;8.864;2022-10-13T12:18:18;11.13;;;5.80;;
8327;SDS011;4201;48.754;8.864;2022-10-13T12:20:51;7.70;;;5.00;;
8327;SDS011;4201;48.754;8.864;2022-10-13T12:23:18;8.93;;;5.33;;
8327;SDS011;4201;48.754;8.864;2022-10-13T12:25:45;11.97;;;5.17;;
8327;SDS011;4201;48.754;8.864;2022-10-13T12:28:13;9.70;;;5.47;;
8327;SDS011;4201;48.754;8.864;2022-10-13T12:30:42;6.90;;;5.30;;
8327;SDS011;4201;48.754;8.864;2022-10-13T12:33:16;13.10;;;6.67;;
8327;SDS011;4201;48.754;8.864;2022-10-13T12:35:44;11.80;;;6.10;;
8327;SDS011;4201;48.754;8.864;2022-10-13T12:38:14;13.03;;;6.07;;
8327;SDS011;4201;48.754;8.864;2022-10-13T12:40:42;12.73;;;6.00;;
8327;SDS011;4201;48.754;8.864;2022-10-13T12:43:08;10.60;;;5.67;;
8327;SDS011;4201;48.754;8.864;2022-10-13T12:48:25;10.97;;;5.33;;
8327;SDS011;4201;48.754;8.864;2022-10-13T12:50:53;9.13;;;5.20;;
8327;SDS011;4201;48.754;8.864;2022-10-13T12:53:22;19.70;;;6.00;;
8327;SDS011;4201;48.754;8.864;2022-10-13T12:55:52;14.80;;;6.00;;
8327;SDS011;4201;48.754;8.864;2022-10-13T12:58:21;7.73;;;4.80;;
8327;SDS011;4201;48.754;8.864;2022-10-13T13:00:54;12.30;;;5.77;;
8327;SDS011;4201;48.754;8.864;2022-10-13T13:03:21;6.97;;;6.20;;
8327;SDS011;4201;48.754;8.864;2022-10-13T13:06:05;9.03;;;5.73;;
8327;SDS011;4201;48.754;8.864;2022-10-13T13:08:33;12.10;;;5.17;;
8327;SDS011;4201;48.754;8.864;2022-10-13T13:11:00;10.20;;;5.43;;
8327;SDS011;4201;48.754;8.864;2022-10-13T13:13:26;11.40;;;5.33;;
8327;SDS011;4201;48.754;8.864;2022-10-13T13:15:53;9.07;;;5.20;;
8327;SDS011;4201;48.754;8.864;2022-10-13T13:18:37;17.40;;;6.50;;
8327;SDS011;4201;48.754;8.864;2022-10-13T13:21:07;9.60;;;5.30;;
8327;SDS011;4201;48.754;8.864;2022-10-13T13:23:34;8.03;;;5.57;;
8327;SDS011;4201;48.754;8.864;2022-10-13T13:26:05;10.53;;;5.00;;
8327;SDS011;4201;48.754;8.864;2022-10-13T13:28:32;10.20;;;5.23;;
8327;SDS011;4201;48.754;8.864;2022-10-13T13:30:58;12.07;;;5.63;;
8327;SDS011;4201;48.754;8.864;2022-10-13T13:33:24;13.70;;;5.33;;
8327;SDS011;4201;48.754;8.864;2022-10-13T13:35:51;8.83;;;6.13;;
8327;SDS011;4201;48.754;8.864;2022-10-13T13:38:17;14.10;;;5.67;;
8327;SDS011;4201;48.754;8.864;2022-10-13T13:40:45;10.77;;;6.47;;
8327;SDS011;4201;48.754;8.864;2022-10-13T13:43:11;11.10;;;5.80;;
8327;SDS011;4201;48.754;8.864;2022-10-13T13:45:38;10.70;;;5.60;;
8327;SDS011;4201;48.754;8.864;2022-10-13T13:48:04;11.33;;;7.40;;
8327;SDS011;4201;48.754;8.864;2022-10-13T13:50:32;10.57;;;8.27;;
8327;SDS011;4201;48.754;8.864;2022-10-13T13:52:58;14.00;;;8.90;;
8327;SDS011;4201;48.754;8.864;2022-10-13T13:55:25;14.70;;;9.77;;
8327;SDS011;4201;48.754;8.864;2022-10-13T13:57:53;15.27;;;9.47;;
8327;SDS011;4201;48.754;8.864;2022-10-13T14:00:19;15.67;;;9.23;;
8327;SDS011;4201;48.754;8.864;2022-10-13T14:02:46;14.23;;;8.63;;
8327;SDS011;4201;48.754;8.864;2022-10-13T14:05:13;15.90;;;9.20;;
8327;SDS011;4201;48.754;8.864;2022-10-13T14:07:39;14.83;;;9.77;;
8327;SDS011;4201;48.754;8.864;2022-10-13T14:10:07;20.87;;;10.93;;
8327;SDS011;4201;48.754;8.864;2022-10-13T14:12:33;19.00;;;9.60;;
8327;SDS011;4201;48.754;8.864;2022-10-13T14:15:01;14.83;;;10.20;;
8327;SDS011;4201;48.754;8.864;2022-10-13T14:17:28;16.40;;;10.50;;
8327;SDS011;4201;48.754;8.864;2022-10-13T14:19:54;15.83;;;10.37;;
8327;SDS011;4201;48.754;8.864;2022-10-13T14:22:20;16.60;;;10.83;;
8327;SDS011;4201;48.754;8.864;2022-10-13T14:24:47;14.47;;;10.77;;
8327;SDS011;4201;48.754;8.864;2022-10-13T14:27:13;16.67;;;11.03;;
8327;SDS011;4201;48.754;8.864;2022-10-13T14:29:39;20.93;;;10.50;;
8327;SDS011;4201;48.754;8.864;2022-10-13T14:32:07;16.27;;;12.00;;
8327;SDS011;4201;48.754;8.864;2022-10-13T14:34:33;21.60;;;11.50;;
8327;SDS011;4201;48.754;8.864;2022-10-13T14:37:00;17.77;;;12.73;;
8327;SDS011;4201;48.754;8.864;2022-10-13T14:39:26;18.70;;;12.60;;
8327;SDS011;4201;48.754;8.864;2022-10-13T14:41:53;22.13;;;13.00;;
8327;SDS011;4201;48.754;8.864;2022-10-13T14:44:19;20.60;;;14.67;;
8327;SDS011;4201;48.754;8.864;2022-10-13T14:46:45;18.97;;;14.30;;
8327;SDS011;4201;48.754;8.864;2022-10-13T14:49:14;19.63;;;13.60;;
8327;SDS011;4201;48.754;8.864;2022-10-13T14:51:43;24.73;;;13.17;;
8327;SDS011;4201;48.754;8.864;2022-10-13T14:54:10;25.20;;;13.07;;
8327;SDS011;4201;48.754;8.864;2022-10-13T14:56:36;24.33;;;12.90;;
8327;SDS011;4201;48.754;8.864;2022-10-13T14:59:03;21.17;;;13.70;;
8327;SDS011;4201;48.754;8.864;2022-10-13T15:01:30;22.20;;;14.23;;
8327;SDS011;4201;48.754;8.864;2022-10-13T15:03:57;20.87;;;14.90;;
8327;SDS011;4201;48.754;8.864;2022-10-13T15:06:25;20.43;;;13.83;;
8327;SDS011;4201;48.754;8.864;2022-10-13T15:08:51;21.67;;;14.73;;
8327;SDS011;4201;48.754;8.864;2022-10-13T15:11:18;19.80;;;14.03;;
8327;SDS011;4201;48.754;8.864;2022-10-13T15:13:45;20.37;;;14.00;;
8327;SDS011;4201;48.754;8.864;2022-10-13T15:16:13;21.03;;;14.00;;